メインページ
METAR-TAF:

METAR-TAF

空港 :

レイキャヴィーク, アイスランド

レイキャヴィーク空港

緯度: 64-08N, 経度: 021-54W, 海抜: 54m

現時点の気象観測

当レポートは47分前の09:00(UTC)に作成
南/南西の風 16kt
気温 5°C
湿度 81%
気圧 1004 hPa
視程: 5000m
高度2000ftの雲は散在している
高度2500ftの曇り
小雨, 靄

METAR: BIRK 250900Z 20016KT 5000 -RA BR SCT020 OVC025 05/02 Q1004

時間: 09:47 (09:47 UTC)

予報

当レポートは2時間2分前の07:45(UTC)に作成
予報は25日の 09時(UTC)から 26日の 09時(UTC)まで有効
南西の風 23kt
視程10km以上
高度1500ftの雲は散在している
高度2500ftの千切れ雲あり
にわか雨
25日の 09時(UTC)から 25日の 12時(UTC)まで一時的に
視程: 5000m
高度1400ftの千切れ雲あり
雨, 靄
25日の 20時(UTC)から 25日の 23時(UTC)まで徐々に
の風 13kt
26日の 04時(UTC)から 26日の 07時(UTC)まで徐々に
東/南東の風 15kt
視程: 8000m
雨, 霧雨

TAF: BIRK 250745Z 2509/2609 22023KT 9999 SHRA SCT015 BKN025 TX05/2509Z TN02/2606Z TEMPO 2509/2512 5000 RA BR BKN014 BECMG 2520/2523 19013KT BECMG 2604/2607 12015KT 8000 RADZ

4,000以上の空港の気象観測と天気予報(METAR報とTAF報)

利用可能な観測所は地図上に黄色い丸と赤い丸で示す。

丸の上にカーソルを重ねると観測所名を参照できる。

次にクリックすると気象観測と天気予報を参照できる。

マップの切り替え:黒色「×」印の緑ボタンをクリックして拡大、「-」印の緑ボタンをクリックして縮小、緑色の三角印をクリックして隣りの地図に切り替え


METAR-TAF: